createdAt,value
2023-04-22T10:01:52.990Z,18.62
2023-04-22T10:02:53.114Z,-40.00
2023-04-22T10:03:53.021Z,-40.00
2023-04-22T10:04:52.989Z,17.94
2023-04-22T10:05:52.960Z,-40.00
2023-04-22T10:06:52.936Z,17.23
2023-04-22T10:07:52.987Z,17.41
2023-04-22T10:08:52.915Z,17.62
2023-04-22T10:09:52.929Z,17.56
2023-04-22T10:10:52.898Z,18.37
2023-04-22T10:11:52.890Z,18.99
2023-04-22T10:12:52.881Z,18.14
2023-04-22T10:13:52.876Z,17.44
2023-04-22T10:14:52.853Z,17.46
2023-04-22T10:15:52.848Z,18.03
2023-04-22T10:16:52.880Z,18.59
2023-04-22T10:17:52.859Z,18.43
2023-04-22T10:18:52.817Z,18.62
2023-04-22T10:19:52.813Z,19.03
2023-04-22T10:20:52.853Z,18.67
2023-04-22T10:21:52.788Z,19.28
2023-04-22T10:22:52.776Z,18.62
2023-04-22T10:23:52.768Z,18.21
2023-04-22T10:24:52.757Z,18.83
2023-04-22T10:25:52.769Z,19.43
2023-04-22T10:26:54.355Z,20.09
2023-04-22T10:27:52.830Z,19.82
2023-04-22T10:28:52.714Z,19.84
2023-04-22T10:29:52.702Z,20.66
2023-04-22T10:30:52.781Z,21.40
2023-04-22T10:31:52.736Z,21.07
2023-04-22T10:32:52.697Z,19.85
2023-04-22T10:33:52.673Z,-40.00
2023-04-22T10:34:52.656Z,19.33
2023-04-22T10:35:52.649Z,18.98
2023-04-22T10:36:52.639Z,18.30
2023-04-22T10:37:52.630Z,17.90
2023-04-22T10:38:52.633Z,18.52
2023-04-22T10:39:52.617Z,19.25
2023-04-22T10:40:52.605Z,19.35
2023-04-22T10:41:52.621Z,-40.00
2023-04-22T10:42:52.579Z,21.07
2023-04-22T10:43:52.577Z,21.37
2023-04-22T10:44:52.574Z,21.97
2023-04-22T10:45:52.568Z,22.40
2023-04-22T10:46:52.542Z,22.28
2023-04-22T10:47:52.587Z,22.50
2023-04-22T10:48:52.525Z,22.75
2023-04-22T10:49:52.512Z,22.98
2023-04-22T10:50:52.514Z,22.93
2023-04-22T10:51:52.503Z,23.15
2023-04-22T10:52:52.490Z,23.65
2023-04-22T10:53:52.484Z,23.92
2023-04-22T10:54:52.469Z,24.33
2023-04-22T10:55:52.467Z,24.73
2023-04-22T10:56:58.041Z,24.54
2023-04-22T10:57:52.463Z,24.05
2023-04-22T10:58:52.447Z,-40.00
2023-04-22T10:59:52.424Z,-40.00
2023-04-22T11:00:54.189Z,-40.00
2023-04-22T11:01:52.504Z,-40.00
2023-04-22T11:03:52.476Z,-40.00
2023-04-22T11:04:52.374Z,-40.00
2023-04-22T11:05:52.374Z,-40.00
2023-04-22T11:06:52.357Z,-40.00
2023-04-22T11:09:52.331Z,-40.00
2023-04-22T11:10:52.318Z,-40.00
2023-04-22T11:11:52.309Z,-40.00
2023-04-22T11:12:52.311Z,-40.00
2023-04-22T11:13:52.317Z,-40.00
2023-04-22T11:14:52.282Z,-40.00
2023-04-22T11:16:52.420Z,-40.00
2023-04-22T11:17:52.288Z,-40.00
2023-04-22T11:18:52.277Z,-40.00
2023-04-22T11:19:52.234Z,-40.00
2023-04-22T11:20:52.227Z,-40.00
2023-04-22T11:21:52.228Z,-40.00
2023-04-22T11:24:52.191Z,42.49
2023-04-22T11:25:52.182Z,-40.00
2023-04-22T11:29:52.166Z,-40.00
2023-04-22T11:30:52.139Z,-40.00
2023-04-22T11:33:52.103Z,-40.00
2023-04-22T11:34:52.101Z,-40.00
2023-04-22T11:37:52.086Z,-40.00
2023-04-22T11:38:52.057Z,-40.00
2023-04-22T11:40:16.846Z,-40.00
2023-04-22T11:43:52.024Z,-40.00
2023-04-22T11:45:52.050Z,-40.00
2023-04-22T11:46:51.985Z,-40.00
2023-04-22T11:47:51.998Z,-40.00
2023-04-22T11:51:51.941Z,-40.00
2023-04-22T11:52:51.936Z,-40.00
2023-04-22T11:53:51.930Z,-40.00
2023-04-22T11:54:51.910Z,-40.00
2023-04-22T11:56:51.890Z,-40.00
2023-04-22T11:57:51.878Z,-40.00
2023-04-22T11:58:51.875Z,-40.00
2023-04-22T11:59:51.863Z,-40.00
2023-04-22T12:01:51.877Z,-40.00
2023-04-22T12:02:51.898Z,-40.00
2023-04-22T12:07:51.782Z,-40.00
2023-04-22T12:11:51.746Z,-40.00
2023-04-22T12:12:51.739Z,-40.00
2023-04-22T12:13:56.606Z,-40.00
2023-04-22T12:17:51.778Z,42.49
2023-04-22T12:24:51.629Z,-40.00
2023-04-22T18:48:31.373Z,1.24
2023-04-22T18:54:31.310Z,-40.00
2023-04-22T18:55:31.308Z,-40.00
2023-04-22T18:56:31.292Z,-40.00
